Time;durP1;ratioP1;P1;durP2;ratioP2;P2;SDS_P1;SDS_P2;PMS_P1;PMS_P2;Temp;Humidity;BMP_temperature;BMP_pressure;BME280_temperature;BME280_humidity;BME280_pressure;Samples;Min_cycle;Max_cycle;Signal;HPM_P1;HPM_P2
2023/05/28 00:02:17;;;;;;;;;;;;;;;22.27;98.43;101949.81;5057217;28;19977;-56
2023/05/28 00:04:42;;;;;;;;;;;;;;;22.28;98.48;101948.72;5060672;28;19913;-54
2023/05/28 00:07:10;;;;;;;;;;;;;;;22.23;99.03;101947.81;5054886;28;20092;-53
2023/05/28 00:09:36;;;;;;;;;;;;;;;22.19;98.45;101940.13;5059789;28;19917;-53
2023/05/28 00:12:01;;;;;;;;;;;;;;;22.17;98.64;101947.72;5058991;28;19936;-56
2023/05/28 00:14:26;;;;;;;;;;;;;;;21.92;100.00;101946.22;5056710;28;19920;-52
2023/05/28 00:16:52;;;;;;;;;;;;;;;21.86;100.00;101939.00;5059296;28;19973;-55
2023/05/28 00:19:18;;;;;;;;;;;;;;;21.93;100.00;101944.31;5042895;28;19913;-53
2023/05/28 00:21:43;;;;;;;;;;;;;;;21.92;99.71;101935.34;5057514;28;19912;-54
2023/05/28 00:24:08;;;;;;;;;;;;;;;21.80;100.00;101933.72;5062390;28;19921;-56
2023/05/28 00:26:36;;;;;;;;;;;;;;;21.81;99.55;101941.66;5065141;28;19927;-50
2023/05/28 00:29:03;;;;;;;;;;;;;;;21.74;99.56;101939.06;5062159;28;19912;-52
2023/05/28 00:31:29;;;;;;;;;;;;;;;21.75;98.89;101942.63;5061667;28;19916;-56
2023/05/28 00:33:56;;;;;;;;;;;;;;;21.63;99.50;101938.03;5038764;28;19955;-53
2023/05/28 00:36:22;;;;;;;;;;;;;;;21.62;99.37;101935.56;5038686;28;20298;-53
2023/05/28 00:38:48;;;;;;;;;;;;;;;21.69;99.54;101938.19;5061624;28;19936;-52
2023/05/28 00:41:22;;;;;;;;;;;;;;;21.51;100.00;101940.00;5059040;28;19916;-53
2023/05/28 00:43:51;;;;;;;;;;;;;;;21.43;100.00;101941.19;5034380;28;19919;-54
2023/05/28 00:46:21;;;;;;;;;;;;;;;21.54;100.00;101944.09;5056489;28;19994;-56
2023/05/28 00:48:47;;;;;;;;;;;;;;;21.48;100.00;101941.28;5036263;28;19920;-52
2023/05/28 00:51:14;;;;;;;;;;;;;;;21.33;100.00;101952.69;5053703;28;19921;-53
2023/05/28 00:53:40;;;;;;;;;;;;;;;21.12;100.00;101942.47;5054283;28;19917;-54
2023/05/28 00:56:07;;;;;;;;;;;;;;;21.13;100.00;101944.13;5056357;28;19917;-55
2023/05/28 00:58:35;;;;;;;;;;;;;;;21.45;100.00;101935.50;5057881;28;19935;-53
2023/05/28 01:01:00;;;;;;;;;;;;;;;21.51;100.00;101940.00;5038729;28;19913;-55
2023/05/28 01:03:26;;;;;;;;;;;;;;;21.49;100.00;101936.69;5038408;28;19913;-54
2023/05/28 01:05:52;;;;;;;;;;;;;;;21.13;100.00;101941.38;5057071;28;19984;-53
2023/05/28 01:08:17;;;;;;;;;;;;;;;21.27;100.00;101950.09;5055738;28;19924;-53
2023/05/28 01:10:43;;;;;;;;;;;;;;;21.31;100.00;101941.22;5035551;28;19913;-50
2023/05/28 01:13:09;;;;;;;;;;;;;;;20.97;100.00;101935.63;5053469;28;19933;-53
2023/05/28 01:15:35;;;;;;;;;;;;;;;21.15;100.00;101936.53;5036269;28;19913;-51
2023/05/28 01:18:01;;;;;;;;;;;;;;;20.98;100.00;101931.84;5043963;28;19917;-53
2023/05/28 01:20:28;;;;;;;;;;;;;;;20.83;100.00;101932.34;5040362;28;19920;-49
2023/05/28 01:22:55;;;;;;;;;;;;;;;21.06;100.00;101934.19;5043490;28;19928;-51
2023/05/28 01:25:22;;;;;;;;;;;;;;;20.81;100.00;101931.75;5039655;28;19917;-52
2023/05/28 01:27:47;;;;;;;;;;;;;;;20.87;100.00;101913.66;5041901;28;19928;-50
2023/05/28 01:30:13;;;;;;;;;;;;;;;20.76;100.00;101920.72;5059108;28;20190;-53
2023/05/28 01:32:38;;;;;;;;;;;;;;;20.69;100.00;101912.69;5043827;28;19916;-54
2023/05/28 01:35:05;;;;;;;;;;;;;;;20.78;100.00;101914.00;5045048;28;19976;-51
2023/05/28 01:37:33;;;;;;;;;;;;;;;20.75;100.00;101919.88;5041927;28;19917;-55
2023/05/28 01:39:59;;;;;;;;;;;;;;;20.55;100.00;101911.31;5039618;28;19927;-49
2023/05/28 01:42:25;;;;;;;;;;;;;;;20.78;100.00;101911.28;5059236;28;19921;-50
2023/05/28 01:44:51;;;;;;;;;;;;;;;20.45;100.00;101907.28;5041048;28;19920;-53
2023/05/28 01:47:17;;;;;;;;;;;;;;;20.57;100.00;101898.31;5039682;28;19980;-54
2023/05/28 01:49:42;;;;;;;;;;;;;;;20.39;100.00;101910.09;5026825;28;19909;-55
2023/05/28 01:52:12;;;;;;;;;;;;;;;20.80;100.00;101902.09;5045454;28;19916;-52
2023/05/28 01:54:38;;;;;;;;;;;;;;;20.83;100.00;101901.63;5039436;28;19913;-50
2023/05/28 01:57:03;;;;;;;;;;;;;;;20.39;100.00;101899.22;5039266;28;19987;-54
2023/05/28 01:59:29;;;;;;;;;;;;;;;20.27;100.00;101904.66;5039402;28;19924;-54
2023/05/28 02:01:55;;;;;;;;;;;;;;;20.28;100.00;101903.59;5041468;28;19913;-53
2023/05/28 02:04:20;;;;;;;;;;;;;;;20.19;100.00;101905.84;5041178;28;19913;-53
2023/05/28 02:06:46;;;;;;;;;;;;;;;20.48;100.00;101909.50;5040878;28;19943;-53
2023/05/28 02:09:12;;;;;;;;;;;;;;;20.20;100.00;101902.88;5057888;28;19916;-53
2023/05/28 02:11:41;;;;;;;;;;;;;;;20.18;100.00;101901.47;5055464;28;19920;-52
2023/05/28 02:14:06;;;;;;;;;;;;;;;20.13;100.00;101904.91;5041251;28;20016;-55
2023/05/28 02:16:32;;;;;;;;;;;;;;;20.00;100.00;101899.66;5032334;28;19927;-54
2023/05/28 02:19:00;;;;;;;;;;;;;;;20.10;100.00;101910.81;5041576;28;19944;-53
2023/05/28 02:21:26;;;;;;;;;;;;;;;20.12;100.00;101902.41;5039354;28;19912;-54
2023/05/28 02:23:52;;;;;;;;;;;;;;;20.09;100.00;101903.72;5039773;28;19923;-54
2023/05/28 02:26:17;;;;;;;;;;;;;;;20.42;100.00;101915.09;5038605;28;19917;-54
2023/05/28 02:28:43;;;;;;;;;;;;;;;20.11;100.00;101915.16;5055682;28;19979;-54
2023/05/28 02:31:11;;;;;;;;;;;;;;;19.98;100.00;101918.09;5038030;28;19917;-52
2023/05/28 02:33:41;;;;;;;;;;;;;;;20.03;100.00;101915.50;5055704;28;19919;-55
2023/05/28 02:36:07;;;;;;;;;;;;;;;19.93;100.00;101910.63;5055928;28;19980;-49
2023/05/28 02:38:33;;;;;;;;;;;;;;;19.95;100.00;101913.13;5056724;28;19919;-53
2023/05/28 02:40:59;;;;;;;;;;;;;;;19.90;100.00;101901.03;5038037;28;19920;-52
2023/05/28 02:43:24;;;;;;;;;;;;;;;19.83;100.00;101904.91;5058545;28;19913;-55
2023/05/28 02:45:50;;;;;;;;;;;;;;;19.81;100.00;101901.59;5037448;28;19931;-54
2023/05/28 02:48:15;;;;;;;;;;;;;;;19.87;100.00;101904.22;5058175;28;19920;-55
2023/05/28 02:50:41;;;;;;;;;;;;;;;19.81;100.00;101902.41;5055077;28;20003;-55
2023/05/28 02:53:33;;;;;;;;;;;;;;;19.77;100.00;101895.81;5039777;28;19956;-54
2023/05/28 02:55:59;;;;;;;;;;;;;;;19.78;100.00;101894.75;5021268;28;19921;-55
2023/05/28 02:58:24;;;;;;;;;;;;;;;19.73;100.00;101895.47;5054735;28;19919;-56
2023/05/28 03:00:50;;;;;;;;;;;;;;;19.67;100.00;101906.41;5038927;28;19913;-55
2023/05/28 03:03:16;;;;;;;;;;;;;;;19.65;100.00;101903.09;5039414;28;20036;-56
2023/05/28 03:05:42;;;;;;;;;;;;;;;19.67;100.00;101906.41;5037642;28;19908;-58
2023/05/28 03:08:08;;;;;;;;;;;;;;;19.62;100.00;101909.81;5004699;28;1032218;-56
2023/05/28 03:10:35;;;;;;;;;;;;;;;19.61;100.00;101919.84;5055368;28;19920;-57
2023/05/28 03:13:01;;;;;;;;;;;;;;;19.51;100.00;101922.25;5038174;28;19913;-56
2023/05/28 03:15:26;;;;;;;;;;;;;;;19.56;100.00;101916.97;5039817;28;19952;-56
2023/05/28 03:17:53;;;;;;;;;;;;;;;19.51;100.00;101916.84;5039912;28;19924;-55
2023/05/28 03:20:21;;;;;;;;;;;;;;;19.51;100.00;101908.69;5037871;28;19919;-55
2023/05/28 03:22:47;;;;;;;;;;;;;;;19.47;100.00;101913.75;5039981;28;19940;-56
2023/05/28 03:25:13;;;;;;;;;;;;;;;19.40;100.00;101910.31;5037644;28;19935;-55
2023/05/28 03:27:39;;;;;;;;;;;;;;;19.36;100.00;101909.09;5041363;28;19917;-56
2023/05/28 03:30:07;;;;;;;;;;;;;;;19.39;100.00;101910.53;5060386;28;19913;-56
2023/05/28 03:32:43;;;;;;;;;;;;;;;19.44;100.00;101916.09;5038156;28;19966;-54
2023/05/28 03:35:09;;;;;;;;;;;;;;;19.40;100.00;101915.72;5039237;28;19916;-56
2023/05/28 03:37:35;;;;;;;;;;;;;;;19.35;100.00;101915.59;5041875;28;19913;-54
2023/05/28 03:40:00;;;;;;;;;;;;;;;19.34;100.00;101920.16;5038514;28;19980;-55
2023/05/28 03:42:25;;;;;;;;;;;;;;;19.35;100.00;101921.81;5036172;28;19913;-53
2023/05/28 03:44:51;;;;;;;;;;;;;;;19.27;100.00;101914.00;5044889;28;19920;-51
2023/05/28 03:47:18;;;;;;;;;;;;;;;19.31;100.00;101914.41;5043992;28;19935;-54
2023/05/28 03:49:43;;;;;;;;;;;;;;;19.29;100.00;101916.50;5039289;28;19913;-49
2023/05/28 03:52:10;;;;;;;;;;;;;;;19.26;100.00;101915.06;5060220;28;19912;-50
2023/05/28 03:54:53;;;;;;;;;;;;;;;19.19;100.00;101914.34;5059794;28;19935;-54
2023/05/28 03:57:19;;;;;;;;;;;;;;;19.15;100.00;101913.13;5044290;28;19921;-48
2023/05/28 03:59:44;;;;;;;;;;;;;;;19.25;100.00;101923.41;5059204;28;19913;-53
2023/05/28 04:02:10;;;;;;;;;;;;;;;19.31;100.00;101915.22;5038017;28;19943;-52
2023/05/28 04:04:35;;;;;;;;;;;;;;;19.33;100.00;101913.09;5041847;28;19912;-53
2023/05/28 04:07:01;;;;;;;;;;;;;;;19.25;100.00;101921.53;5057562;28;19917;-52
2023/05/28 04:09:27;;;;;;;;;;;;;;;19.28;100.00;101918.38;5027153;28;19921;-53
2023/05/28 04:11:53;;;;;;;;;;;;;;;19.40;100.00;101917.63;5026658;28;19972;-54
2023/05/28 04:14:19;;;;;;;;;;;;;;;19.36;100.00;101928.09;5021444;28;19943;-54
2023/05/28 04:16:44;;;;;;;;;;;;;;;19.25;100.00;101920.72;5024406;28;19913;-53
2023/05/28 04:19:10;;;;;;;;;;;;;;;19.32;100.00;101921.47;5021223;28;19913;-54
2023/05/28 04:21:36;;;;;;;;;;;;;;;19.45;100.00;101925.91;5022558;28;19917;-56
2023/05/28 04:24:03;;;;;;;;;;;;;;;19.33;100.00;101928.56;5025250;28;19920;-50
2023/05/28 04:26:28;;;;;;;;;;;;;;;19.32;100.00;101932.31;5021186;28;19922;-53
2023/05/28 04:28:54;;;;;;;;;;;;;;;19.58;100.00;101941.97;5024428;28;19913;-54
2023/05/28 04:31:19;;;;;;;;;;;;;;;19.76;100.00;101943.00;5014074;28;19922;-51
2023/05/28 04:33:47;;;;;;;;;;;;;;;19.83;100.00;101946.44;5019855;28;19913;-53
2023/05/28 04:36:15;;;;;;;;;;;;;;;19.85;100.00;101955.22;5024353;28;19945;-54
2023/05/28 04:38:41;;;;;;;;;;;;;;;19.97;100.00;101949.00;5023114;28;20304;-55
2023/05/28 04:41:07;;;;;;;;;;;;;;;19.96;100.00;101950.91;5018024;28;19980;-54
2023/05/28 04:43:33;;;;;;;;;;;;;;;20.06;100.00;101944.88;5026101;28;19948;-55
2023/05/28 04:46:00;;;;;;;;;;;;;;;20.04;100.00;101945.13;5026077;28;19982;-52
2023/05/28 04:48:26;;;;;;;;;;;;;;;20.16;100.00;101950.59;5019793;28;19913;-53
2023/05/28 04:50:52;;;;;;;;;;;;;;;20.30;100.00;101955.81;5021672;28;19944;-54
2023/05/28 04:53:17;;;;;;;;;;;;;;;20.18;100.00;101945.75;5021254;28;19914;-52
2023/05/28 04:55:44;;;;;;;;;;;;;;;20.20;100.00;101951.78;5022271;28;19924;-53
2023/05/28 04:58:09;;;;;;;;;;;;;;;20.56;100.00;101953.72;5024291;28;19914;-51
2023/05/28 05:00:36;;;;;;;;;;;;;;;20.74;100.00;101956.28;5016269;28;19936;-55
2023/05/28 05:03:01;;;;;;;;;;;;;;;20.88;100.00;101956.09;5019708;28;19953;-52
2023/05/28 05:05:28;;;;;;;;;;;;;;;20.96;100.00;101955.72;5020444;28;19908;-54
2023/05/28 05:07:53;;;;;;;;;;;;;;;20.96;100.00;101955.72;5020867;28;19925;-54
2023/05/28 05:10:20;;;;;;;;;;;;;;;20.88;100.00;101956.94;5036076;28;19925;-52
2023/05/28 05:12:48;;;;;;;;;;;;;;;20.97;100.00;101959.28;5036875;28;19917;-54
2023/05/28 05:15:13;;;;;;;;;;;;;;;21.11;100.00;101973.44;5032735;28;19921;-51
2023/05/28 05:17:39;;;;;;;;;;;;;;;21.10;100.00;101972.59;5032024;28;19957;-53
2023/05/28 05:20:06;;;;;;;;;;;;;;;20.93;100.00;101967.06;5034416;28;19971;-53
2023/05/28 05:22:33;;;;;;;;;;;;;;;21.15;100.00;101972.72;5036303;28;19913;-52
2023/05/28 05:25:01;;;;;;;;;;;;;;;21.20;100.00;101969.28;5029464;28;19917;-49
2023/05/28 05:27:28;;;;;;;;;;;;;;;21.28;100.00;101971.66;5016538;28;19944;-55
2023/05/28 05:29:53;;;;;;;;;;;;;;;21.33;100.00;101966.31;5032516;28;20559;-57
2023/05/28 05:32:19;;;;;;;;;;;;;;;21.46;100.00;101967.09;5037132;28;20284;-52
2023/05/28 05:34:45;;;;;;;;;;;;;;;21.52;100.00;101968.00;5031158;28;19914;-56
2023/05/28 05:37:33;;;;;;;;;;;;;;;21.60;100.00;101979.34;5035170;28;19925;-56
2023/05/28 05:40:18;;;;;;;;;;;;;;;21.59;100.00;101980.41;5035247;28;20104;-55
2023/05/28 05:43:01;;;;;;;;;;;;;;;21.51;100.00;101977.25;5033155;28;19913;-54
2023/05/28 05:45:28;;;;;;;;;;;;;;;21.61;100.00;101970.09;5033206;28;19985;-54
2023/05/28 05:47:54;;;;;;;;;;;;;;;21.52;100.00;101978.91;5016628;28;19920;-57
2023/05/28 05:50:20;;;;;;;;;;;;;;;21.59;100.00;101979.59;5034750;28;19917;-53
2023/05/28 05:52:46;;;;;;;;;;;;;;;21.54;100.00;101977.59;5018354;28;19984;-55
2023/05/28 05:55:12;;;;;;;;;;;;;;;21.41;100.00;101977.88;5031221;28;19914;-54
2023/05/28 05:57:38;;;;;;;;;;;;;;;21.47;100.00;101974.19;5034315;28;19913;-49
2023/05/28 06:00:05;;;;;;;;;;;;;;;21.53;100.00;101975.09;5034865;28;19913;-55
2023/05/28 06:02:38;;;;;;;;;;;;;;;21.52;100.00;101976.19;5036430;28;19925;-53
2023/05/28 06:05:11;;;;;;;;;;;;;;;21.41;100.00;101978.72;5038165;28;19993;-56
2023/05/28 06:08:02;;;;;;;;;;;;;;;21.44;100.00;101977.38;5039385;28;19913;-53
2023/05/28 06:10:39;;;;;;;;;;;;;;;21.31;100.00;101979.31;5056489;28;19963;-56
2023/05/28 06:13:05;;;;;;;;;;;;;;;21.39;100.00;101980.00;5040470;28;19943;-52
2023/05/28 06:15:31;;;;;;;;;;;;;;;21.19;100.00;101981.22;5041833;28;19913;-56
2023/05/28 06:17:58;;;;;;;;;;;;;;;21.34;100.00;101980.75;5039870;28;19913;-54
2023/05/28 06:20:24;;;;;;;;;;;;;;;21.44;100.00;101982.81;5033721;28;19913;-55
2023/05/28 06:22:50;;;;;;;;;;;;;;;21.62;100.00;101985.38;5060292;28;19992;-57
2023/05/28 06:25:16;;;;;;;;;;;;;;;21.63;100.00;101981.56;5022606;28;19916;-54
2023/05/28 06:27:42;;;;;;;;;;;;;;;21.69;100.00;101976.28;5042490;28;19920;-56
2023/05/28 06:30:10;;;;;;;;;;;;;;;21.79;100.00;101976.47;5042783;28;19913;-56
2023/05/28 06:32:37;;;;;;;;;;;;;;;21.86;100.00;101968.16;5059643;28;19913;-50
2023/05/28 06:35:03;;;;;;;;;;;;;;;21.89;100.00;101971.19;5042710;28;19920;-52
2023/05/28 06:37:30;;;;;;;;;;;;;;;22.03;100.00;101969.03;5040185;28;19916;-50
2023/05/28 06:39:55;;;;;;;;;;;;;;;21.97;99.59;101977.34;5042276;28;19913;-55
2023/05/28 06:42:21;;;;;;;;;;;;;;;22.08;98.46;101970.97;5039231;28;19913;-56
2023/05/28 06:45:05;;;;;;;;;;;;;;;22.16;98.29;101965.16;5059602;28;19923;-52
2023/05/28 06:47:31;;;;;;;;;;;;;;;22.19;96.56;101975.56;5043865;28;19959;-55
2023/05/28 06:49:57;;;;;;;;;;;;;;;22.29;96.24;101974.91;5041314;28;19908;-54
2023/05/28 06:52:24;;;;;;;;;;;;;;;22.55;93.37;101974.50;5042067;28;19913;-55
2023/05/28 06:54:50;;;;;;;;;;;;;;;22.24;93.83;101977.50;5045675;28;19920;-53
2023/05/28 06:57:15;;;;;;;;;;;;;;;22.49;94.15;101979.88;5038756;28;19912;-53
2023/05/28 07:00:00;;;;;;;;;;;;;;;22.53;89.51;101984.81;5063819;28;20383;-55
2023/05/28 07:02:44;;;;;;;;;;;;;;;22.89;89.47;101985.38;5041802;28;19920;-55
2023/05/28 07:05:30;;;;;;;;;;;;;;;23.08;89.49;101985.09;5054228;28;19921;-56
2023/05/28 07:07:55;;;;;;;;;;;;;;;23.20;89.83;101991.22;5040563;28;19923;-52
2023/05/28 07:10:21;;;;;;;;;;;;;;;23.05;87.55;101997.31;5058782;28;19967;-54
2023/05/28 07:12:47;;;;;;;;;;;;;;;23.12;85.84;101997.13;5037368;28;19913;-53
2023/05/28 07:15:13;;;;;;;;;;;;;;;23.38;83.20;101994.75;5036737;28;19927;-54
2023/05/28 07:17:39;;;;;;;;;;;;;;;23.51;79.88;101997.09;5040120;28;19988;-57
2023/05/28 07:20:05;;;;;;;;;;;;;;;23.76;82.33;101998.47;5039456;28;19935;-50
2023/05/28 07:22:45;;;;;;;;;;;;;;;23.82;80.38;102000.19;5033719;28;19913;-53
2023/05/28 07:25:11;;;;;;;;;;;;;;;23.94;80.38;102001.91;5035837;28;19917;-51
2023/05/28 07:27:37;;;;;;;;;;;;;;;24.08;79.62;102000.47;5036140;28;19919;-54
2023/05/28 07:30:03;;;;;;;;;;;;;;;24.28;76.57;101999.00;5042051;28;19912;-56
2023/05/28 07:32:28;;;;;;;;;;;;;;;24.43;77.55;102003.75;5034689;28;19952;-54
2023/05/28 07:34:55;;;;;;;;;;;;;;;24.45;77.59;101996.97;5038420;28;19916;-55
2023/05/28 07:37:21;;;;;;;;;;;;;;;24.61;77.46;102003.34;5038435;28;19923;-55
2023/05/28 07:39:46;;;;;;;;;;;;;;;24.86;73.88;102006.53;5056317;28;20012;-54
2023/05/28 07:42:13;;;;;;;;;;;;;;;24.96;73.32;102006.63;5038398;28;19948;-53
2023/05/28 07:44:41;;;;;;;;;;;;;;;24.43;72.00;102010.03;5037770;28;19927;-55
2023/05/28 07:47:07;;;;;;;;;;;;;;;24.79;69.29;102020.44;5037031;28;19917;-56
2023/05/28 07:49:59;;;;;;;;;;;;;;;25.05;68.72;102013.22;5022199;28;19923;-52
2023/05/28 07:52:40;;;;;;;;;;;;;;;24.91;67.85;102012.03;5037780;28;19923;-53
2023/05/28 07:55:07;;;;;;;;;;;;;;;25.22;68.71;102017.69;5037507;28;19913;-54
2023/05/28 07:57:32;;;;;;;;;;;;;;;25.40;68.02;102015.59;5037575;28;19950;-54
2023/05/28 07:59:59;;;;;;;;;;;;;;;25.50;70.13;102014.84;5037690;28;19952;-52
2023/05/28 08:02:26;;;;;;;;;;;;;;;25.71;69.30;102018.44;5039442;28;20039;-56
2023/05/28 08:04:53;;;;;;;;;;;;;;;25.63;66.93;102011.56;5055121;28;19924;-57
2023/05/28 08:07:19;;;;;;;;;;;;;;;25.88;67.21;102012.72;5037291;28;19928;-54
2023/05/28 08:09:44;;;;;;;;;;;;;;;25.84;65.11;102019.84;5051207;28;19924;-56
2023/05/28 08:12:12;;;;;;;;;;;;;;;25.83;63.97;102021.75;5042100;28;19951;-54
2023/05/28 08:14:38;;;;;;;;;;;;;;;26.04;62.75;102021.78;5037972;28;19912;-55
2023/05/28 08:17:07;;;;;;;;;;;;;;;26.11;62.32;102010.56;5038856;28;19982;-57
2023/05/28 08:19:45;;;;;;;;;;;;;;;26.11;61.23;102011.41;5035499;28;20035;-56
2023/05/28 08:22:28;;;;;;;;;;;;;;;26.31;61.12;102001.56;5037616;28;19909;-56
2023/05/28 08:24:53;;;;;;;;;;;;;;;26.28;62.32;102010.31;5042258;28;19913;-57
2023/05/28 08:27:18;;;;;;;;;;;;;;;26.66;61.71;102008.09;5059556;28;19984;-56
2023/05/28 08:29:44;;;;;;;;;;;;;;;26.75;60.28;102000.94;5060711;28;19913;-53
2023/05/28 08:32:10;;;;;;;;;;;;;;;26.55;59.55;102001.00;5059844;28;19943;-54
2023/05/28 08:34:38;;;;;;;;;;;;;;;26.74;59.82;102004.78;5060444;28;19981;-53
2023/05/28 08:37:04;;;;;;;;;;;;;;;26.76;59.51;102008.09;5039291;28;19913;-54
2023/05/28 08:39:37;;;;;;;;;;;;;;;27.10;58.49;102008.59;5040062;28;19912;-52
2023/05/28 08:42:03;;;;;;;;;;;;;;;27.27;58.43;102014.56;5057619;28;19931;-54
2023/05/28 08:44:29;;;;;;;;;;;;;;;27.31;58.44;102010.16;5042876;28;20399;-54
2023/05/28 08:46:55;;;;;;;;;;;;;;;27.54;56.78;102007.88;5058918;28;19931;-58
2023/05/28 08:49:32;;;;;;;;;;;;;;;27.27;58.47;102009.06;5037567;28;19971;-56
2023/05/28 08:52:02;;;;;;;;;;;;;;;27.50;57.78;102004.03;5042486;28;19977;-54
2023/05/28 08:54:31;;;;;;;;;;;;;;;27.77;56.88;102011.03;5035005;28;19913;-54
2023/05/28 08:56:58;;;;;;;;;;;;;;;27.86;55.01;102012.06;5037421;28;19912;-54
2023/05/28 08:59:27;;;;;;;;;;;;;;;27.98;55.01;102016.41;5040700;28;19913;-57
2023/05/28 09:01:53;;;;;;;;;;;;;;;27.85;55.24;102015.94;5057866;28;19980;-55
2023/05/28 09:04:20;;;;;;;;;;;;;;;27.85;54.60;102018.69;5041128;28;19916;-55
2023/05/28 09:06:45;;;;;;;;;;;;;;;28.14;53.79;102009.69;5057354;28;19935;-54
2023/05/28 09:09:23;;;;;;;;;;;;;;;28.47;52.96;102007.22;5039696;28;19956;-53
2023/05/28 09:11:53;;;;;;;;;;;;;;;28.46;52.20;102005.59;5040898;28;19913;-56
2023/05/28 09:14:19;;;;;;;;;;;;;;;28.82;51.96;102006.34;5057126;28;19913;-55
2023/05/28 09:16:47;;;;;;;;;;;;;;;29.26;50.95;101994.25;5040602;28;19973;-53
2023/05/28 09:19:20;;;;;;;;;;;;;;;29.44;50.19;101994.63;5042892;28;19921;-54
2023/05/28 09:22:06;;;;;;;;;;;;;;;29.74;49.35;102000.78;5036159;28;19932;-55
2023/05/28 09:24:38;;;;;;;;;;;;;;;30.30;48.63;101999.09;5043373;28;19916;-54
2023/05/28 09:27:27;;;;;;;;;;;;;;;30.30;47.87;102001.06;5039715;28;19917;-55
2023/05/28 09:29:54;;;;;;;;;;;;;;;30.29;47.88;101991.94;5033143;28;19924;-60
2023/05/28 09:32:20;;;;;;;;;;;;;;;30.21;47.00;101989.06;5060540;28;19921;-56
2023/05/28 09:34:46;;;;;;;;;;;;;;;30.27;46.98;101988.66;5057103;28;19933;-55
2023/05/28 09:37:11;;;;;;;;;;;;;;;30.85;45.65;101994.81;5059256;28;19977;-57
2023/05/28 09:39:36;;;;;;;;;;;;;;;31.47;44.29;101987.19;5061900;28;19939;-58
2023/05/28 09:42:06;;;;;;;;;;;;;;;32.06;43.21;101997.44;5060369;28;20052;-56
2023/05/28 09:44:32;;;;;;;;;;;;;;;32.36;42.99;101989.53;5059353;28;19971;-56
2023/05/28 09:46:58;;;;;;;;;;;;;;;32.45;42.15;101990.38;5061955;28;19928;-58
2023/05/28 09:49:24;;;;;;;;;;;;;;;32.54;41.63;101989.63;5063506;28;19956;-57
2023/05/28 09:51:52;;;;;;;;;;;;;;;33.03;40.14;101982.16;5063137;28;19939;-58
2023/05/28 09:54:19;;;;;;;;;;;;;;;33.20;39.35;101983.28;5060724;28;19909;-58
2023/05/28 09:56:47;;;;;;;;;;;;;;;33.58;37.44;101985.50;5062025;28;19913;-55
2023/05/28 09:59:17;;;;;;;;;;;;;;;33.93;37.04;101981.06;5061191;28;19916;-57
2023/05/28 10:01:52;;;;;;;;;;;;;;;34.63;35.28;101994.78;5059454;28;20028;-58
2023/05/28 10:04:23;;;;;;;;;;;;;;;35.03;33.31;101997.19;5062849;28;19972;-59
2023/05/28 10:06:51;;;;;;;;;;;;;;;34.41;33.47;101993.88;5062218;28;19916;-57
2023/05/28 10:09:17;;;;;;;;;;;;;;;35.62;32.01;101999.44;5056037;28;19923;-55
2023/05/28 10:11:48;;;;;;;;;;;;;;;35.35;31.69;102004.38;5064474;28;19913;-56
2023/05/28 10:14:13;;;;;;;;;;;;;;;35.33;31.88;101995.56;5063166;28;19921;-57
2023/05/28 10:16:39;;;;;;;;;;;;;;;35.46;31.49;102002.78;5061958;28;19967;-57
2023/05/28 10:19:05;;;;;;;;;;;;;;;35.74;30.36;102005.88;5063407;28;19980;-57
2023/05/28 10:21:30;;;;;;;;;;;;;;;34.81;31.61;102008.56;5060435;28;19905;-57
2023/05/28 10:23:56;;;;;;;;;;;;;;;34.64;31.29;101995.59;5057330;28;19913;-57
2023/05/28 10:26:21;;;;;;;;;;;;;;;35.19;30.84;101998.59;5063818;28;19939;-58
2023/05/28 10:28:54;;;;;;;;;;;;;;;35.58;30.77;102004.84;5063099;28;19947;-55
2023/05/28 10:31:20;;;;;;;;;;;;;;;35.30;30.80;102005.38;5061349;28;19920;-56
2023/05/28 10:33:46;;;;;;;;;;;;;;;36.50;29.58;102001.34;5043800;28;19938;-58
2023/05/28 10:36:13;;;;;;;;;;;;;;;37.14;28.78;102004.63;5061993;28;19913;-59
2023/05/28 10:38:43;;;;;;;;;;;;;;;37.47;28.91;101998.00;5063446;28;19948;-59
2023/05/28 10:41:09;;;;;;;;;;;;;;;37.53;28.49;101999.41;5061545;28;19917;-57
2023/05/28 10:43:38;;;;;;;;;;;;;;;37.57;27.78;102003.09;5056887;28;19935;-57
2023/05/28 10:46:10;;;;;;;;;;;;;;;38.55;27.10;102002.94;5056297;28;19917;-56
2023/05/28 10:48:59;;;;;;;;;;;;;;;39.08;26.81;102012.16;5060859;28;19912;-58
2023/05/28 10:51:41;;;;;;;;;;;;;;;39.09;26.08;102008.19;5057884;28;19924;-57
2023/05/28 10:54:41;;;;;;;;;;;;;;;38.79;26.11;102000.31;5060939;28;19943;-55
2023/05/28 10:57:10;;;;;;;;;;;;;;;38.63;25.77;101998.34;5011062;28;19913;-58
2023/05/28 10:59:58;;;;;;;;;;;;;;;38.92;25.40;101998.25;5055132;28;19916;-55
2023/05/28 11:02:25;;;;;;;;;;;;;;;38.50;26.60;101999.59;5047723;28;19957;-56
2023/05/28 11:04:52;;;;;;;;;;;;;;;38.75;25.60;102000.22;5062624;28;19935;-58
2023/05/28 11:07:18;;;;;;;;;;;;;;;38.78;25.62;102002.28;5064648;28;19924;-57
2023/05/28 11:09:47;;;;;;;;;;;;;;;38.21;25.90;102004.44;5060566;28;19917;-57
2023/05/28 11:12:12;;;;;;;;;;;;;;;38.82;25.18;101999.59;5055285;28;19913;-58
2023/05/28 11:14:38;;;;;;;;;;;;;;;38.62;25.26;101995.91;5060179;28;19905;-57
2023/05/28 11:17:08;;;;;;;;;;;;;;;39.00;25.84;102006.44;5064824;28;19913;-56
2023/05/28 11:19:43;;;;;;;;;;;;;;;39.78;25.16;102001.22;5057594;28;19941;-55
2023/05/28 11:22:08;;;;;;;;;;;;;;;39.12;24.81;102004.66;5060768;28;19913;-58
2023/05/28 11:24:49;;;;;;;;;;;;;;;40.34;24.84;102008.28;5056098;28;19913;-58
2023/05/28 11:27:15;;;;;;;;;;;;;;;41.43;23.35;102015.50;5057323;28;19942;-59
2023/05/28 11:29:41;;;;;;;;;;;;;;;41.62;22.80;102008.13;5062788;28;19952;-58
2023/05/28 11:32:06;;;;;;;;;;;;;;;42.17;23.02;102001.88;5060558;28;19947;-58
2023/05/28 11:34:31;;;;;;;;;;;;;;;42.38;23.17;102000.44;5064060;28;19976;-57
2023/05/28 11:36:58;;;;;;;;;;;;;;;43.04;22.25;102004.50;5062858;28;19944;-57
2023/05/28 11:39:24;;;;;;;;;;;;;;;43.50;22.20;102006.72;5066361;28;19955;-58
2023/05/28 11:41:50;;;;;;;;;;;;;;;43.33;22.46;102001.84;5060077;28;19921;-56
2023/05/28 11:44:22;;;;;;;;;;;;;;;43.53;21.63;101993.88;5061561;28;19976;-57
2023/05/28 11:46:53;;;;;;;;;;;;;;;44.18;22.11;102005.28;5057135;28;19913;-58
2023/05/28 11:49:19;;;;;;;;;;;;;;;44.57;21.64;102000.84;5065280;28;19913;-56
2023/05/28 11:51:44;;;;;;;;;;;;;;;44.11;20.96;102008.91;5044531;28;19976;-59
2023/05/28 11:54:10;;;;;;;;;;;;;;;43.46;21.81;102005.91;5056712;28;19912;-54
2023/05/28 11:56:36;;;;;;;;;;;;;;;44.07;20.86;102005.25;5060048;28;19916;-57
2023/05/28 11:59:01;;;;;;;;;;;;;;;44.25;20.84;102015.72;5063538;28;19940;-57
2023/05/28 12:01:31;;;;;;;;;;;;;;;44.01;20.22;102003.25;5060877;28;19912;-59
2023/05/28 12:04:03;;;;;;;;;;;;;;;44.18;20.97;102015.75;5055353;28;19964;-60
2023/05/28 12:06:30;;;;;;;;;;;;;;;44.45;20.97;102001.22;5057557;28;19919;-56
2023/05/28 12:08:56;;;;;;;;;;;;;;;44.12;21.17;101995.59;5060643;28;19969;-58
2023/05/28 12:11:25;;;;;;;;;;;;;;;44.49;20.18;102002.84;5065224;28;19923;-57
2023/05/28 12:13:51;;;;;;;;;;;;;;;43.78;20.14;102007.25;5059052;28;19928;-58
2023/05/28 12:16:16;;;;;;;;;;;;;;;44.59;20.05;102001.25;5061671;28;19924;-59
2023/05/28 12:18:42;;;;;;;;;;;;;;;44.32;19.73;102001.66;5058338;28;19967;-59
2023/05/28 12:21:11;;;;;;;;;;;;;;;43.97;20.04;102000.41;5059105;28;19923;-58
2023/05/28 12:23:37;;;;;;;;;;;;;;;42.89;21.16;101993.19;5057436;28;19995;-58
2023/05/28 12:26:02;;;;;;;;;;;;;;;44.21;19.39;101992.38;5059634;28;19933;-60
2023/05/28 12:28:28;;;;;;;;;;;;;;;44.10;20.37;101993.19;5058347;28;19939;-59
2023/05/28 12:30:55;;;;;;;;;;;;;;;43.92;19.25;101986.72;5062345;28;19951;-58
2023/05/28 12:33:21;;;;;;;;;;;;;;;44.41;18.31;101999.22;5056293;28;19944;-58
2023/05/28 12:35:47;;;;;;;;;;;;;;;43.96;19.50;101995.97;5053864;28;19928;-59